createdAt,value
2022-10-12T00:01:03.329Z,12.73
2022-10-12T00:03:31.568Z,14.67
2022-10-12T00:06:05.444Z,15.60
2022-10-12T00:08:34.313Z,12.97
2022-10-12T00:11:02.693Z,15.40
2022-10-12T00:13:32.570Z,11.80
2022-10-12T00:16:04.467Z,15.90
2022-10-12T00:18:33.628Z,15.23
2022-10-12T00:21:03.155Z,10.50
2022-10-12T00:23:32.778Z,11.63
2022-10-12T00:26:04.079Z,12.83
2022-10-12T00:28:34.709Z,14.67
2022-10-12T00:31:03.240Z,13.00
2022-10-12T00:33:31.465Z,11.63
2022-10-12T00:35:59.765Z,14.87
2022-10-12T00:38:28.045Z,18.27
2022-10-12T00:40:56.238Z,17.43
2022-10-12T00:43:30.505Z,13.93
2022-10-12T00:46:02.476Z,17.40
2022-10-12T00:48:31.410Z,12.23
2022-10-12T00:51:02.621Z,15.40
2022-10-12T00:53:36.869Z,15.03
2022-10-12T00:56:11.497Z,14.30
2022-10-12T00:58:39.992Z,16.23
2022-10-12T01:01:10.517Z,15.63
2022-10-12T01:03:39.087Z,13.57
2022-10-12T01:06:08.571Z,15.37
2022-10-12T01:08:39.114Z,14.57
2022-10-12T01:11:07.611Z,14.03
2022-10-12T01:13:35.934Z,16.17
2022-10-12T01:16:14.973Z,19.07
2022-10-12T01:18:51.544Z,14.67
2022-10-12T01:21:21.387Z,14.53
2022-10-12T01:24:23.003Z,15.90
2022-10-12T01:27:16.265Z,18.63
2022-10-12T01:30:15.897Z,18.00
2022-10-12T01:33:06.403Z,20.70
2022-10-12T01:35:44.465Z,21.17
2022-10-12T01:38:25.359Z,14.73
2022-10-12T01:41:00.816Z,20.23
2022-10-12T01:43:35.438Z,24.53
2022-10-12T01:46:45.014Z,17.03
2022-10-12T01:49:15.861Z,18.63
2022-10-12T01:52:11.708Z,14.40
2022-10-12T01:54:53.233Z,18.90
2022-10-12T01:57:32.561Z,13.03
2022-10-12T02:00:05.794Z,14.03
2022-10-12T02:02:45.800Z,9.63
2022-10-12T02:05:23.249Z,13.77
2022-10-12T02:07:55.573Z,14.90
2022-10-12T02:10:29.258Z,12.90
2022-10-12T02:13:02.414Z,13.30
2022-10-12T02:15:31.624Z,11.83
2022-10-12T02:18:04.389Z,12.07
2022-10-12T02:20:34.077Z,13.97
2022-10-12T02:23:04.050Z,15.40
2022-10-12T02:25:34.304Z,16.60
2022-10-12T02:28:06.809Z,10.37
2022-10-12T02:30:39.996Z,13.47
2022-10-12T02:33:16.173Z,14.13
2022-10-12T02:35:52.248Z,10.83
2022-10-12T02:38:25.349Z,14.70
2022-10-12T02:40:58.525Z,12.37
2022-10-12T02:43:34.113Z,14.63
2022-10-12T02:46:03.599Z,13.27
2022-10-12T02:48:34.307Z,11.30
2022-10-12T02:51:03.653Z,10.03
2022-10-12T02:53:32.715Z,14.97
2022-10-12T02:56:04.184Z,12.30
2022-10-12T02:58:33.114Z,12.20
2022-10-12T03:01:01.551Z,9.73
2022-10-12T03:03:29.988Z,10.70
2022-10-12T03:06:00.141Z,13.23
2022-10-12T03:08:28.560Z,11.47
2022-10-12T03:11:02.465Z,11.47
2022-10-12T03:13:30.802Z,12.77
2022-10-12T03:16:03.226Z,10.97
2022-10-12T03:18:31.582Z,13.43
2022-10-12T03:21:01.263Z,10.07
2022-10-12T03:23:30.036Z,9.60
2022-10-12T03:25:58.275Z,13.83
2022-10-12T03:28:26.948Z,14.63
2022-10-12T03:30:55.509Z,15.20
2022-10-12T03:33:23.856Z,18.93
2022-10-12T03:35:52.134Z,13.37
2022-10-12T03:38:22.106Z,15.23
2022-10-12T03:40:50.555Z,15.90
2022-10-12T03:43:18.885Z,12.40
2022-10-12T03:45:47.481Z,14.57
2022-10-12T03:48:15.731Z,11.50
2022-10-12T03:50:44.125Z,13.53
2022-10-12T03:53:12.348Z,14.60
2022-10-12T03:55:42.200Z,11.00
2022-10-12T03:58:10.543Z,14.83
2022-10-12T04:00:38.960Z,14.20
2022-10-12T04:03:07.205Z,12.10
2022-10-12T04:05:35.494Z,9.77
2022-10-12T04:08:03.771Z,12.67
2022-10-12T04:10:32.262Z,17.57
2022-10-12T04:13:01.932Z,26.67
2022-10-12T04:15:30.162Z,13.20
2022-10-12T04:17:58.431Z,12.00
2022-10-12T04:20:26.767Z,12.33
2022-10-12T04:22:55.009Z,10.87
2022-10-12T04:25:29.282Z,10.60
2022-10-12T04:27:58.777Z,9.73
2022-10-12T04:30:28.787Z,14.07
2022-10-12T04:32:57.349Z,16.60
2022-10-12T04:35:25.608Z,16.47
2022-10-12T04:37:53.972Z,14.93
2022-10-12T04:40:22.311Z,12.50
2022-10-12T04:42:50.688Z,12.53
2022-10-12T04:45:18.933Z,10.93
2022-10-12T04:47:48.656Z,12.40
2022-10-12T04:50:17.058Z,12.97
2022-10-12T04:52:45.329Z,11.60
2022-10-12T04:55:13.654Z,13.07
2022-10-12T04:57:45.056Z,13.47
2022-10-12T05:00:14.180Z,12.10
2022-10-12T05:02:42.471Z,16.13
2022-10-12T05:05:12.436Z,10.37
2022-10-12T05:07:40.995Z,10.43
2022-10-12T05:10:10.481Z,8.10
2022-10-12T05:12:39.055Z,9.13
2022-10-12T05:15:08.847Z,11.20
2022-10-12T05:17:37.359Z,13.87
2022-10-12T05:20:06.845Z,9.57
2022-10-12T05:22:36.521Z,9.80
2022-10-12T05:25:06.082Z,10.10
2022-10-12T05:27:34.357Z,11.23
2022-10-12T05:30:02.707Z,9.07
2022-10-12T05:32:30.981Z,14.80
2022-10-12T05:34:59.250Z,15.07
2022-10-12T05:37:27.594Z,10.47
2022-10-12T05:39:57.296Z,8.40
2022-10-12T05:42:25.640Z,16.30
2022-10-12T05:44:53.973Z,9.83
2022-10-12T05:47:22.461Z,17.73
2022-10-12T05:49:50.723Z,11.30
2022-10-12T05:52:19.074Z,8.17
2022-10-12T05:54:47.375Z,8.17
2022-10-12T05:57:17.031Z,11.17
2022-10-12T05:59:45.424Z,8.97
2022-10-12T06:02:15.466Z,10.27
2022-10-12T06:04:44.302Z,11.93
2022-10-12T06:07:12.780Z,12.47
2022-10-12T06:09:41.100Z,14.97
2022-10-12T06:12:09.488Z,13.03
2022-10-12T06:14:39.083Z,36.20
2022-10-12T06:17:07.831Z,73.20
2022-10-12T06:19:36.468Z,126.97
2022-10-12T06:22:05.193Z,103.27
2022-10-12T06:24:33.479Z,92.00
2022-10-12T06:27:01.717Z,68.40
2022-10-12T06:29:30.104Z,84.30
2022-10-12T06:31:59.906Z,75.43
2022-10-12T06:34:28.248Z,88.37
2022-10-12T06:37:00.949Z,90.43
2022-10-12T06:39:30.217Z,93.43
2022-10-12T06:41:58.612Z,90.73
2022-10-12T06:44:29.835Z,92.47
2022-10-12T06:46:59.498Z,102.70
2022-10-12T06:49:27.899Z,68.10
2022-10-12T06:51:56.508Z,74.60
2022-10-12T06:54:24.918Z,81.63
2022-10-12T06:56:57.889Z,47.30
2022-10-12T06:59:27.233Z,42.00
2022-10-12T07:01:55.985Z,51.47
2022-10-12T07:04:25.802Z,55.40
2022-10-12T07:06:53.972Z,52.03
2022-10-12T07:09:22.327Z,52.23
2022-10-12T07:11:50.823Z,36.67
2022-10-12T07:14:19.225Z,47.10
2022-10-12T07:16:51.641Z,42.87
2022-10-12T07:19:22.601Z,41.93
2022-10-12T07:21:52.203Z,36.07
2022-10-12T07:24:20.686Z,44.67
2022-10-12T07:26:50.737Z,43.23
2022-10-12T07:29:18.988Z,36.53
2022-10-12T07:31:51.785Z,35.60
2022-10-12T07:34:20.418Z,38.50
2022-10-12T07:36:59.226Z,39.70
2022-10-12T07:39:29.510Z,36.90
2022-10-12T07:41:57.928Z,43.37
2022-10-12T07:44:26.265Z,38.57
2022-10-12T07:46:54.505Z,37.93
2022-10-12T07:49:22.797Z,36.20
2022-10-12T07:51:51.060Z,35.10
2022-10-12T07:54:22.634Z,33.10
2022-10-12T07:56:55.306Z,32.90
2022-10-12T07:59:24.152Z,34.17
2022-10-12T08:01:52.483Z,35.57
2022-10-12T08:04:20.746Z,27.07
2022-10-12T08:06:49.218Z,34.77
2022-10-12T08:09:18.464Z,29.97
2022-10-12T08:11:46.710Z,38.10
2022-10-12T08:14:17.242Z,34.53
2022-10-12T08:16:45.812Z,35.03
2022-10-12T08:19:14.204Z,35.70
2022-10-12T08:21:42.921Z,32.27
2022-10-12T08:24:11.931Z,32.07
2022-10-12T08:26:40.373Z,29.30
2022-10-12T08:29:09.230Z,30.70
2022-10-12T08:31:38.896Z,29.97
2022-10-12T08:34:07.200Z,27.97
2022-10-12T08:36:35.511Z,31.80
2022-10-12T08:39:06.904Z,27.97
2022-10-12T08:41:44.350Z,32.20
2022-10-12T08:44:38.866Z,32.83
2022-10-12T08:47:12.887Z,26.83
2022-10-12T08:49:47.421Z,31.93
2022-10-12T08:52:28.597Z,30.80
2022-10-12T08:55:00.295Z,31.33
2022-10-12T08:57:28.642Z,31.00
2022-10-12T08:59:56.938Z,26.10
2022-10-12T09:02:46.711Z,28.83
2022-10-12T09:05:20.231Z,30.33
2022-10-12T09:07:55.128Z,25.40
2022-10-12T09:10:32.289Z,31.80
2022-10-12T09:13:08.260Z,30.10
2022-10-12T09:15:39.724Z,27.27
2022-10-12T09:18:19.459Z,28.73
2022-10-12T09:20:49.666Z,27.37
2022-10-12T09:23:28.663Z,24.33
2022-10-12T09:26:03.148Z,24.43
2022-10-12T09:28:37.804Z,21.87
2022-10-12T09:31:22.845Z,22.23
2022-10-12T09:33:55.947Z,22.33
2022-10-12T09:36:27.760Z,18.17
2022-10-12T09:38:59.946Z,17.97
2022-10-12T09:41:33.680Z,16.80
2022-10-12T09:44:05.780Z,14.73
2022-10-12T09:46:41.238Z,14.30
2022-10-12T09:49:11.070Z,19.17
2022-10-12T09:51:39.741Z,17.00
2022-10-12T09:54:08.255Z,12.83
2022-10-12T09:56:42.513Z,16.03
2022-10-12T09:59:25.689Z,13.37
2022-10-12T10:02:05.829Z,17.47
2022-10-12T10:04:35.913Z,15.13
2022-10-12T10:07:20.294Z,19.15
2022-10-12T10:09:49.593Z,17.23
2022-10-12T10:12:27.777Z,18.13
2022-10-12T10:14:59.649Z,19.50
2022-10-12T10:17:29.854Z,17.05
2022-10-12T10:20:01.902Z,19.60
2022-10-12T10:22:31.114Z,17.58
2022-10-12T10:25:01.317Z,14.18
2022-10-12T10:27:37.352Z,25.50
2022-10-12T10:30:32.531Z,18.13
2022-10-12T10:33:14.848Z,20.27
2022-10-12T10:35:55.513Z,21.52
2022-10-12T10:38:24.023Z,16.15
2022-10-12T10:40:53.712Z,18.60
2022-10-12T10:43:25.932Z,19.73
2022-10-12T10:45:57.030Z,16.67
2022-10-12T10:48:29.380Z,19.27
2022-10-12T10:51:02.105Z,15.52
2022-10-12T10:53:43.302Z,16.55
2022-10-12T10:56:15.347Z,16.88
2022-10-12T10:58:46.921Z,16.83
2022-10-12T11:01:20.733Z,15.48
2022-10-12T11:04:00.542Z,16.60
2022-10-12T11:06:38.471Z,18.38
2022-10-12T11:09:12.101Z,16.63
2022-10-12T11:11:43.997Z,13.10
2022-10-12T11:14:17.237Z,17.45
2022-10-12T11:16:51.873Z,15.85
2022-10-12T11:19:27.412Z,15.70
2022-10-12T11:22:00.184Z,12.10
2022-10-12T11:24:34.614Z,16.75
2022-10-12T11:27:07.793Z,14.05
2022-10-12T11:29:37.745Z,12.35
2022-10-12T11:32:24.793Z,11.98
2022-10-12T11:34:56.174Z,11.15
2022-10-12T11:37:34.480Z,12.20
2022-10-12T11:40:05.988Z,15.02
2022-10-12T11:42:43.215Z,12.73
2022-10-12T11:45:21.689Z,10.43
2022-10-12T11:47:56.880Z,10.73
2022-10-12T11:50:34.321Z,12.00
2022-10-12T11:53:10.091Z,11.70
2022-10-12T11:55:55.688Z,13.23
2022-10-12T11:58:42.231Z,10.68
2022-10-12T12:01:41.091Z,14.55
2022-10-12T12:04:40.506Z,10.95
2022-10-12T12:07:27.741Z,8.93
2022-10-12T12:09:57.366Z,8.68
2022-10-12T12:12:27.854Z,10.32
2022-10-12T12:15:22.148Z,12.23
2022-10-12T12:18:11.477Z,10.63
2022-10-12T12:21:03.457Z,12.25
2022-10-12T12:23:38.844Z,9.52
2022-10-12T12:26:17.406Z,13.80
2022-10-12T12:28:48.631Z,10.45
2022-10-12T12:32:04.600Z,8.50
2022-10-12T12:35:16.527Z,8.63
2022-10-12T12:37:50.976Z,9.60
2022-10-12T12:46:15.504Z,8.32
2022-10-12T12:49:04.647Z,13.00
2022-10-12T12:51:43.533Z,11.55
2022-10-12T12:54:19.396Z,11.10
2022-10-12T12:57:07.852Z,10.68
2022-10-12T13:00:08.723Z,11.25
2022-10-12T13:03:19.070Z,10.88
2022-10-12T13:06:46.744Z,10.73
2022-10-12T13:09:43.952Z,11.63
2022-10-12T13:12:43.148Z,12.30
2022-10-12T13:15:30.111Z,11.25
2022-10-12T13:18:47.542Z,11.52
2022-10-12T13:21:43.345Z,10.10
2022-10-12T13:24:24.572Z,13.70
2022-10-12T13:26:57.580Z,10.82
2022-10-12T13:29:36.968Z,7.63
2022-10-12T13:32:15.148Z,11.10
2022-10-12T13:34:48.941Z,9.65
2022-10-12T13:37:23.760Z,8.35
2022-10-12T13:39:54.366Z,12.85
2022-10-12T13:42:27.766Z,9.77
2022-10-12T13:44:56.246Z,9.57
2022-10-12T13:47:28.814Z,10.70
2022-10-12T13:49:58.326Z,11.82
2022-10-12T13:52:32.434Z,11.35
2022-10-12T13:55:02.801Z,12.70
2022-10-12T13:57:38.285Z,11.75
2022-10-12T14:00:11.296Z,13.23
2022-10-12T14:02:41.327Z,12.00
2022-10-12T14:05:19.416Z,10.40
2022-10-12T14:07:48.310Z,12.00
2022-10-12T14:10:21.218Z,10.07
2022-10-12T14:12:52.990Z,9.93
2022-10-12T14:15:22.345Z,17.52
2022-10-12T14:17:52.505Z,9.30
2022-10-12T14:20:30.749Z,10.50
2022-10-12T14:23:00.613Z,12.00
2022-10-12T14:25:30.357Z,11.02
2022-10-12T14:28:06.203Z,14.05
2022-10-12T14:30:36.845Z,9.02
2022-10-12T14:33:22.576Z,12.63
2022-10-12T14:35:53.878Z,10.45
2022-10-12T14:38:42.101Z,12.43
2022-10-12T14:41:53.957Z,10.00
2022-10-12T14:44:26.857Z,12.85
2022-10-12T14:46:57.128Z,13.48
2022-10-12T14:49:28.038Z,12.35
2022-10-12T14:51:56.832Z,14.55
2022-10-12T14:54:25.131Z,11.82
2022-10-12T14:56:53.566Z,9.30
2022-10-12T14:59:21.837Z,12.50
2022-10-12T15:01:51.331Z,14.43
2022-10-12T15:04:19.976Z,11.50
2022-10-12T15:06:51.095Z,11.70
2022-10-12T15:09:19.666Z,10.20
2022-10-12T15:11:48.079Z,11.25
2022-10-12T15:14:16.580Z,11.18
2022-10-12T15:16:44.897Z,13.63
2022-10-12T15:19:13.219Z,10.05
2022-10-12T15:21:41.665Z,12.18
2022-10-12T15:24:16.323Z,14.95
2022-10-12T15:26:44.620Z,14.32
2022-10-12T15:29:16.429Z,13.57
2022-10-12T15:31:51.025Z,9.85
2022-10-12T15:37:31.484Z,8.80
2022-10-12T15:40:01.173Z,12.70
2022-10-12T15:42:29.437Z,10.95
2022-10-12T15:44:57.722Z,11.57
2022-10-12T15:47:25.941Z,11.23
2022-10-12T15:49:54.190Z,11.50
2022-10-12T15:52:22.702Z,14.70
2022-10-12T15:54:50.977Z,11.85
2022-10-12T15:57:20.620Z,10.75
2022-10-12T15:59:52.420Z,12.20
2022-10-12T16:02:22.948Z,13.75
2022-10-12T16:04:51.301Z,12.55
2022-10-12T16:07:19.655Z,12.27
2022-10-12T16:09:47.934Z,12.18
2022-10-12T16:12:16.559Z,14.00
2022-10-12T16:14:46.206Z,15.35
2022-10-12T16:17:14.771Z,12.38
2022-10-12T16:19:43.249Z,10.65
2022-10-12T16:22:14.468Z,13.50
2022-10-12T16:24:42.847Z,10.65
2022-10-12T16:27:11.521Z,11.90
2022-10-12T16:29:40.008Z,12.00
2022-10-12T16:32:09.799Z,17.63
2022-10-12T16:34:38.382Z,16.48
2022-10-12T16:37:06.727Z,10.48
2022-10-12T16:39:35.045Z,12.95
2022-10-12T16:42:03.359Z,12.23
2022-10-12T16:44:31.857Z,12.20
2022-10-12T16:47:01.979Z,11.05
2022-10-12T16:49:31.683Z,13.27
2022-10-12T16:52:00.034Z,16.23
2022-10-12T16:54:29.017Z,15.20
2022-10-12T16:56:57.597Z,13.00
2022-10-12T16:59:26.107Z,17.08
2022-10-12T17:01:54.544Z,16.27
2022-10-12T17:04:23.016Z,18.33
2022-10-12T17:06:54.287Z,16.77
2022-10-12T17:09:23.133Z,19.20
2022-10-12T17:11:51.474Z,19.63
2022-10-12T17:14:19.849Z,21.27
2022-10-12T17:16:52.007Z,22.27
2022-10-12T17:19:22.658Z,35.87
2022-10-12T17:21:53.355Z,33.13
2022-10-12T17:24:24.263Z,26.43
2022-10-12T17:26:53.160Z,20.13
2022-10-12T17:29:22.102Z,21.10
2022-10-12T17:31:50.805Z,21.63
2022-10-12T17:34:22.244Z,24.93
2022-10-12T17:36:53.097Z,19.33
2022-10-12T17:39:22.736Z,25.27
2022-10-12T17:41:51.357Z,29.40
2022-10-12T17:44:19.779Z,28.03
2022-10-12T17:46:49.291Z,32.67
2022-10-12T17:49:24.677Z,38.67
2022-10-12T17:52:03.551Z,39.00
2022-10-12T17:54:34.852Z,36.97
2022-10-12T17:57:06.311Z,41.07
2022-10-12T17:59:37.186Z,40.73
2022-10-12T18:02:10.615Z,81.23
2022-10-12T18:04:39.037Z,45.10
2022-10-12T18:07:09.075Z,43.23
2022-10-12T18:09:41.330Z,36.47
2022-10-12T18:12:12.411Z,58.47
2022-10-12T18:14:43.930Z,66.07
2022-10-12T18:17:12.271Z,54.73
2022-10-12T18:19:42.737Z,49.30
2022-10-12T18:22:15.295Z,42.53
2022-10-12T18:24:46.689Z,33.17
2022-10-12T18:27:18.179Z,22.93
2022-10-12T18:29:47.217Z,23.30
2022-10-12T18:32:15.973Z,23.73
2022-10-12T18:34:45.008Z,21.63
2022-10-12T18:37:14.719Z,21.37
2022-10-12T18:39:44.040Z,21.17
2022-10-12T18:42:15.405Z,26.63
2022-10-12T18:44:47.326Z,31.73
2022-10-12T18:47:15.779Z,36.17
2022-10-12T18:49:44.271Z,33.00
2022-10-12T18:52:13.982Z,38.03
2022-10-12T18:54:44.367Z,29.37
2022-10-12T18:57:12.743Z,30.43
2022-10-12T18:59:41.239Z,27.47
2022-10-12T19:02:11.613Z,25.87
2022-10-12T19:04:40.195Z,26.40
2022-10-12T19:07:08.591Z,28.23
2022-10-12T19:09:38.461Z,32.23
2022-10-12T19:12:07.081Z,29.53
2022-10-12T19:14:38.199Z,28.97
2022-10-12T19:17:08.612Z,24.67
2022-10-12T19:19:37.027Z,26.70
2022-10-12T19:22:05.474Z,26.47
2022-10-12T19:24:34.333Z,26.07
2022-10-12T19:27:04.394Z,26.70
2022-10-12T19:29:32.774Z,28.83
2022-10-12T19:32:01.288Z,30.27
2022-10-12T19:34:29.746Z,25.53
2022-10-12T19:37:02.391Z,26.93
2022-10-12T19:39:32.057Z,26.27
2022-10-12T19:42:00.632Z,28.87
2022-10-12T19:44:31.610Z,25.13
2022-10-12T19:47:01.494Z,25.33
2022-10-12T19:49:36.884Z,24.03
2022-10-12T19:52:07.120Z,22.90
2022-10-12T19:54:40.507Z,19.97
2022-10-12T19:57:09.029Z,24.20
2022-10-12T19:59:38.956Z,23.60
2022-10-12T20:02:09.261Z,21.83
2022-10-12T20:04:37.832Z,24.93
2022-10-12T20:07:06.522Z,21.47
2022-10-12T20:09:35.111Z,23.63
2022-10-12T20:12:03.544Z,23.83
2022-10-12T20:14:41.949Z,24.30
2022-10-12T20:17:10.420Z,24.73
2022-10-12T20:19:43.974Z,26.03
2022-10-12T20:22:12.394Z,28.17
2022-10-12T20:24:40.809Z,28.27
2022-10-12T20:27:09.088Z,27.90
2022-10-12T20:29:37.581Z,27.13
2022-10-12T20:32:07.570Z,25.37
2022-10-12T20:34:36.086Z,26.47
2022-10-12T20:37:04.491Z,28.63
2022-10-12T20:39:35.019Z,28.80
2022-10-12T20:42:03.442Z,28.23
2022-10-12T20:44:32.052Z,25.30
2022-10-12T20:47:02.434Z,26.43
2022-10-12T20:49:32.283Z,24.90
2022-10-12T20:52:00.592Z,28.80
2022-10-12T20:54:29.990Z,26.10
2022-10-12T20:56:58.311Z,26.43
2022-10-12T20:59:26.636Z,25.43
2022-10-12T21:01:54.955Z,23.47
2022-10-12T21:04:25.315Z,27.03
2022-10-12T21:06:54.959Z,26.73
2022-10-12T21:09:23.290Z,30.67
2022-10-12T21:11:51.561Z,28.70
2022-10-12T21:14:19.843Z,30.00
2022-10-12T21:16:48.177Z,29.30
2022-10-12T21:19:17.686Z,32.53
2022-10-12T21:21:47.455Z,28.30
2022-10-12T21:24:17.352Z,33.37
2022-10-12T21:26:46.214Z,31.50
2022-10-12T21:29:14.549Z,31.57
2022-10-12T21:31:43.041Z,34.53
2022-10-12T21:34:12.221Z,36.93
2022-10-12T21:36:40.760Z,37.97
2022-10-12T21:39:14.128Z,29.90
2022-10-12T21:41:44.466Z,36.40
2022-10-12T21:44:13.173Z,39.37
2022-10-12T21:46:41.650Z,33.23
2022-10-12T21:49:11.731Z,30.10
2022-10-12T21:51:43.043Z,30.23
2022-10-12T21:54:18.992Z,32.30
2022-10-12T21:56:48.863Z,33.40
2022-10-12T21:59:20.427Z,28.17
2022-10-12T22:01:49.205Z,29.50
2022-10-12T22:04:17.831Z,21.77
2022-10-12T22:06:46.505Z,24.40
2022-10-12T22:09:19.439Z,19.50
2022-10-12T22:11:49.803Z,22.50
2022-10-12T22:14:21.287Z,27.57
2022-10-12T22:16:51.592Z,24.07
2022-10-12T22:19:20.852Z,23.47
2022-10-12T22:21:51.124Z,21.87
2022-10-12T22:24:22.112Z,20.47
2022-10-12T22:26:52.353Z,21.87
2022-10-12T22:29:20.870Z,20.87
2022-10-12T22:31:49.684Z,23.70
2022-10-12T22:34:18.171Z,22.87
2022-10-12T22:36:46.498Z,21.77
2022-10-12T22:39:14.879Z,20.03
2022-10-12T22:41:46.065Z,15.30
2022-10-12T22:44:15.990Z,16.67
2022-10-12T22:46:47.735Z,34.60
2022-10-12T22:49:16.122Z,26.00
2022-10-12T22:51:46.729Z,18.10
2022-10-12T22:54:15.491Z,17.80
2022-10-12T22:56:44.573Z,17.60
2022-10-12T22:59:16.010Z,21.73
2022-10-12T23:01:45.022Z,23.33
2022-10-12T23:04:13.590Z,23.50
2022-10-12T23:06:42.078Z,26.07
2022-10-12T23:09:10.427Z,21.67
2022-10-12T23:11:41.136Z,24.53
2022-10-12T23:14:16.635Z,26.00
2022-10-12T23:16:45.461Z,24.93
2022-10-12T23:19:13.977Z,25.40
2022-10-12T23:21:43.922Z,26.10
2022-10-12T23:24:12.427Z,26.87
2022-10-12T23:26:40.722Z,24.50
2022-10-12T23:29:09.187Z,24.50
2022-10-12T23:31:41.540Z,22.20
2022-10-12T23:34:12.178Z,23.27
2022-10-12T23:36:40.496Z,20.90
2022-10-12T23:39:08.882Z,23.60
2022-10-12T23:41:37.345Z,21.63
2022-10-12T23:44:07.352Z,21.20
2022-10-12T23:46:36.116Z,19.73
2022-10-12T23:49:09.024Z,21.43
2022-10-12T23:51:37.504Z,20.97
2022-10-12T23:54:06.163Z,19.40
2022-10-12T23:56:34.475Z,20.50
2022-10-12T23:59:03.793Z,23.33
